Private Wetterstation Sandau
Wetterdaten: Dienstag, 12.02.2013
Datum Zeit Temp. A. Feuchte A. Luftdruck Regen Wind Richtung Richtung Taupunkt Windchill
12.02.2013 00:01 -1,8 C 85 % 1013,5 hPa 0,0 l/m 6,5 km/h (2 Bft) O-NO 67 -4,0 C -4,3 C
12.02.2013 00:06 -1,9 C 85 % 1013,5 hPa 0,0 l/m 4,3 km/h (1 Bft) O-NO 67 -4,1 C -1,9 C
12.02.2013 00:11 -1,9 C 85 % 1013,5 hPa 0,0 l/m 5,8 km/h (2 Bft) O-NO 67 -4,1 C -4,1 C
12.02.2013 00:16 -2,1 C 85 % 1013,5 hPa 0,0 l/m 6,8 km/h (2 Bft) NO 45 -4,3 C -4,8 C
12.02.2013 00:21 -2,1 C 86 % 1013,8 hPa 0,0 l/m 4,3 km/h (1 Bft) NO 45 -4,1 C -2,1 C
12.02.2013 00:26 -2,1 C 86 % 1013,6 hPa 0,0 l/m 3,6 km/h (1 Bft) O-NO 67 -4,1 C -2,1 C
12.02.2013 00:31 -2,2 C 86 % 1013,6 hPa 0,0 l/m 4,0 km/h (1 Bft) NO 45 -4,2 C -2,2 C
12.02.2013 00:36 -2,2 C 86 % 1013,7 hPa 0,0 l/m 5,0 km/h (1 Bft) O-NO 67 -4,2 C -4,1 C
12.02.2013 00:41 -2,2 C 86 % 1013,7 hPa 0,0 l/m 5,8 km/h (2 Bft) O-NO 67 -4,2 C -4,5 C
12.02.2013 00:46 -2,2 C 86 % 1013,8 hPa 0,0 l/m 4,0 km/h (1 Bft) NO 45 -4,2 C -2,2 C
12.02.2013 00:51 -2,2 C 87 % 1013,6 hPa 0,0 l/m 7,6 km/h (2 Bft) O 90 -4,1 C -5,2 C
12.02.2013 00:56 -2,1 C 87 % 1013,6 hPa 0,0 l/m 7,6 km/h (2 Bft) O-NO 67 -4,0 C -5,1 C
12.02.2013 01:01 -2,1 C 87 % 1013,8 hPa 0,0 l/m 5,8 km/h (2 Bft) NO 45 -4,0 C -4,4 C
12.02.2013 01:06 -2,1 C 87 % 1013,6 hPa 0,0 l/m 5,4 km/h (1 Bft) O-NO 67 -4,0 C -4,2 C
12.02.2013 01:11 -2,1 C 87 % 1013,7 hPa 0,0 l/m 4,0 km/h (1 Bft) NO 45 -4,0 C -2,1 C
12.02.2013 01:16 -2,0 C 87 % 1013,8 hPa 0,0 l/m 5,0 km/h (1 Bft) NO 45 -3,9 C -3,9 C
12.02.2013 01:21 -1,9 C 87 % 1013,6 hPa 0,0 l/m 1,4 km/h (1 Bft) NO 45 -3,8 C -1,9 C
12.02.2013 01:26 -1,9 C 87 % 1013,7 hPa 0,0 l/m 2,5 km/h (1 Bft) NO 45 -3,8 C -1,9 C
12.02.2013 01:31 -1,8 C 87 % 1013,7 hPa 0,0 l/m 2,5 km/h (1 Bft) NO 45 -3,7 C -1,8 C
12.02.2013 01:36 -1,8 C 87 % 1013,7 hPa 0,0 l/m 5,4 km/h (1 Bft) NO 45 -3,7 C -3,8 C
12.02.2013 01:41 -1,7 C 87 % 1013,7 hPa 0,0 l/m 5,4 km/h (1 Bft) O 90 -3,6 C -3,7 C
12.02.2013 01:46 -1,7 C 87 % 1013,8 hPa 0,0 l/m 2,5 km/h (1 Bft) NO 45 -3,6 C -1,7 C
12.02.2013 01:51 -1,6 C 87 % 1013,5 hPa 0,0 l/m 6,8 km/h (2 Bft) O-NO 67 -3,5 C -4,2 C
12.02.2013 01:56 -1,6 C 87 % 1013,5 hPa 0,0 l/m 4,0 km/h (1 Bft) NO 45 -3,5 C -1,6 C
12.02.2013 02:01 -1,6 C 87 % 1013,6 hPa 0,0 l/m 4,3 km/h (1 Bft) O-NO 67 -3,5 C -1,6 C
12.02.2013 02:06 -1,6 C 87 % 1013,7 hPa 0,0 l/m 6,5 km/h (2 Bft) O 90 -3,5 C -4,1 C
12.02.2013 02:11 -1,6 C 87 % 1013,6 hPa 0,0 l/m 4,7 km/h (1 Bft) NO 45 -3,5 C -3,3 C
12.02.2013 02:16 -1,6 C 87 % 1013,7 hPa 0,0 l/m 1,8 km/h (1 Bft) O-NO 67 -3,5 C -1,6 C
12.02.2013 02:21 -1,6 C 87 % 1013,7 hPa 0,0 l/m 7,2 km/h (2 Bft) O-NO 67 -3,5 C -4,3 C
12.02.2013 02:26 -1,6 C 87 % 1013,7 hPa 0,0 l/m 7,9 km/h (2 Bft) NO 45 -3,5 C -4,6 C
12.02.2013 02:31 -1,5 C 87 % 1013,5 hPa 0,0 l/m 5,4 km/h (1 Bft) NO 45 -3,4 C -3,5 C
12.02.2013 02:36 -1,6 C 87 % 1013,6 hPa 0,0 l/m 4,0 km/h (1 Bft) O-NO 67 -3,5 C -1,6 C
12.02.2013 02:41 -1,6 C 87 % 1013,6 hPa 0,0 l/m 2,2 km/h (1 Bft) O-NO 67 -3,5 C -1,6 C
12.02.2013 02:46 -1,6 C 87 % 1013,7 hPa 0,0 l/m 4,7 km/h (1 Bft) O-NO 67 -3,5 C -3,3 C
12.02.2013 02:51 -1,6 C 87 % 1013,5 hPa 0,0 l/m 4,7 km/h (1 Bft) NO 45 -3,5 C -3,3 C
12.02.2013 02:56 -1,6 C 87 % 1013,8 hPa 0,0 l/m 6,5 km/h (2 Bft) O-NO 67 -3,5 C -4,1 C
12.02.2013 03:01 -1,5 C 87 % 1013,7 hPa 0,0 l/m 6,1 km/h (2 Bft) O-NO 67 -3,4 C -3,8 C
12.02.2013 03:06 -1,6 C 87 % 1013,7 hPa 0,0 l/m 5,8 km/h (2 Bft) NO 45 -3,5 C -3,8 C
12.02.2013 03:11 -1,5 C 87 % 1013,7 hPa 0,0 l/m 5,0 km/h (1 Bft) O-NO 67 -3,4 C -3,3 C
12.02.2013 03:16 -1,5 C 87 % 1013,5 hPa 0,0 l/m 6,1 km/h (2 Bft) O-NO 67 -3,4 C -3,8 C
12.02.2013 03:21 -1,5 C 87 % 1013,5 hPa 0,0 l/m 7,2 km/h (2 Bft) O-NO 67 -3,4 C -4,2 C
12.02.2013 03:26 -1,5 C 87 % 1013,6 hPa 0,0 l/m 6,1 km/h (2 Bft) O-NO 67 -3,4 C -3,8 C
12.02.2013 03:31 -1,5 C 87 % 1013,7 hPa 0,0 l/m 3,6 km/h (1 Bft) O-NO 67 -3,4 C -1,5 C
12.02.2013 03:36 -1,5 C 87 % 1013,6 hPa 0,0 l/m 6,1 km/h (2 Bft) NO 45 -3,4 C -3,8 C
12.02.2013 03:41 -1,5 C 87 % 1013,5 hPa 0,0 l/m 9,0 km/h (2 Bft) O-SO 112 -3,4 C -4,8 C
12.02.2013 03:46 -1,5 C 87 % 1013,7 hPa 0,0 l/m 2,2 km/h (1 Bft) O-NO 67 -3,4 C -1,5 C
12.02.2013 03:51 -1,5 C 87 % 1013,7 hPa 0,0 l/m 8,3 km/h (2 Bft) O-NO 67 -3,4 C -4,6 C
12.02.2013 03:56 -1,5 C 87 % 1013,8 hPa 0,0 l/m 8,3 km/h (2 Bft) NO 45 -3,4 C -4,6 C
12.02.2013 04:01 -1,5 C 87 % 1013,5 hPa 0,0 l/m 8,3 km/h (2 Bft) O-NO 67 -3,4 C -4,6 C
12.02.2013 04:06 -1,5 C 87 % 1013,6 hPa 0,0 l/m 3,2 km/h (1 Bft) O-NO 67 -3,4 C -1,5 C
12.02.2013 04:11 -1,5 C 87 % 1013,5 hPa 0,0 l/m 3,6 km/h (1 Bft) O 90 -3,4 C -1,5 C
12.02.2013 04:16 -1,5 C 87 % 1013,9 hPa 0,0 l/m 3,6 km/h (1 Bft) NO 45 -3,4 C -1,5 C
12.02.2013 04:21 -1,5 C 87 % 1013,8 hPa 0,0 l/m 6,5 km/h (2 Bft) O-NO 67 -3,4 C -4,0 C
12.02.2013 04:26 -1,5 C 87 % 1013,7 hPa 0,0 l/m 2,5 km/h (1 Bft) NO 45 -3,4 C -1,5 C
12.02.2013 04:31 -1,5 C 87 % 1013,7 hPa 0,0 l/m 2,5 km/h (1 Bft) O-NO 67 -3,4 C -1,5 C
12.02.2013 04:36 -1,5 C 87 % 1013,7 hPa 0,0 l/m 4,0 km/h (1 Bft) NO 45 -3,4 C -1,5 C
12.02.2013 04:41 -1,5 C 87 % 1013,8 hPa 0,0 l/m 0,0 km/h (0 Bft) NO 45 -3,4 C -1,5 C
12.02.2013 04:46 -1,5 C 87 % 1013,8 hPa 0,0 l/m 6,5 km/h (2 Bft) O-NO 67 -3,4 C -4,0 C
12.02.2013 04:51 -1,5 C 88 % 1013,6 hPa 0,0 l/m 3,6 km/h (1 Bft) NO 45 -3,2 C -1,5 C
12.02.2013 04:56 -1,6 C 88 % 1013,9 hPa 0,0 l/m 6,8 km/h (2 Bft) NO 45 -3,3 C -4,2 C
12.02.2013 05:01 -1,6 C 88 % 1013,7 hPa 0,0 l/m 4,0 km/h (1 Bft) N-NO 22 -3,3 C -1,6 C
12.02.2013 05:06 -1,6 C 88 % 1013,8 hPa 0,0 l/m 3,2 km/h (1 Bft) N-NO 22 -3,3 C -1,6 C
12.02.2013 05:11 -1,6 C 88 % 1013,8 hPa 0,0 l/m 5,8 km/h (2 Bft) N 360 -3,3 C -3,8 C
12.02.2013 05:16 -1,6 C 88 % 1013,7 hPa 0,0 l/m 0,0 km/h (0 Bft) O-NO 67 -3,3 C -1,6 C
12.02.2013 05:21 -1,6 C 88 % 1013,8 hPa 0,0 l/m 2,9 km/h (1 Bft) O-NO 67 -3,3 C -1,6 C
12.02.2013 05:26 -1,6 C 88 % 1013,7 hPa 0,0 l/m 4,7 km/h (1 Bft) O-NO 67 -3,3 C -3,3 C
12.02.2013 05:31 -1,6 C 88 % 1013,7 hPa 0,0 l/m 11,2 km/h (2 Bft) O-NO 67 -3,3 C -5,5 C
12.02.2013 05:36 -1,6 C 88 % 1013,8 hPa 0,0 l/m 6,1 km/h (2 Bft) O 90 -3,3 C -3,9 C
12.02.2013 05:41 -1,6 C 88 % 1013,8 hPa 0,0 l/m 4,7 km/h (1 Bft) O-NO 67 -3,3 C -3,3 C
12.02.2013 05:46 -1,6 C 88 % 1013,8 hPa 0,0 l/m 10,8 km/h (2 Bft) O-NO 67 -3,3 C -5,4 C
12.02.2013 05:51 -1,6 C 88 % 1013,8 hPa 0,0 l/m 4,7 km/h (1 Bft) O-NO 67 -3,3 C -3,3 C
12.02.2013 05:56 -1,6 C 88 % 1013,6 hPa 0,0 l/m 4,0 km/h (1 Bft) O-NO 67 -3,3 C -1,6 C
12.02.2013 06:01 -1,6 C 88 % 1013,8 hPa 0,0 l/m 5,4 km/h (1 Bft) O-NO 67 -3,3 C -3,6 C
12.02.2013 06:06 -1,6 C 88 % 1013,8 hPa 0,0 l/m 5,0 km/h (1 Bft) O-NO 67 -3,3 C -3,4 C
12.02.2013 06:11 -1,6 C 88 % 1013,8 hPa 0,0 l/m 9,4 km/h (2 Bft) NO 45 -3,3 C -5,1 C
12.02.2013 06:16 -1,6 C 88 % 1013,8 hPa 0,0 l/m 5,0 km/h (1 Bft) NO 45 -3,3 C -3,4 C
12.02.2013 06:21 -1,6 C 88 % 1013,9 hPa 0,0 l/m 8,3 km/h (2 Bft) O-NO 67 -3,3 C -4,7 C
12.02.2013 06:26 -1,6 C 88 % 1013,8 hPa 0,0 l/m 4,7 km/h (1 Bft) O-NO 67 -3,3 C -3,3 C
12.02.2013 06:31 -1,6 C 88 % 1014,0 hPa 0,0 l/m 6,1 km/h (2 Bft) NO 45 -3,3 C -3,9 C
12.02.2013 06:36 -1,6 C 88 % 1014,0 hPa 0,0 l/m 9,4 km/h (2 Bft) NO 45 -3,3 C -5,1 C
12.02.2013 06:41 -1,6 C 88 % 1013,9 hPa 0,0 l/m 4,3 km/h (1 Bft) NO 45 -3,3 C -1,6 C
12.02.2013 06:46 -1,6 C 88 % 1014,0 hPa 0,0 l/m 3,6 km/h (1 Bft) O-NO 67 -3,3 C -1,6 C
12.02.2013 06:51 -1,6 C 88 % 1014,0 hPa 0,0 l/m 2,5 km/h (1 Bft) O-NO 67 -3,3 C -1,6 C
12.02.2013 06:56 -1,6 C 88 % 1013,9 hPa 0,0 l/m 5,8 km/h (2 Bft) O-NO 67 -3,3 C -3,8 C
12.02.2013 07:01 -1,6 C 88 % 1013,9 hPa 0,0 l/m 3,2 km/h (1 Bft) NO 45 -3,3 C -1,6 C
12.02.2013 07:06 -1,6 C 88 % 1014,1 hPa 0,0 l/m 5,4 km/h (1 Bft) O-NO 67 -3,3 C -3,6 C
12.02.2013 07:11 -1,6 C 88 % 1014,0 hPa 0,0 l/m 6,8 km/h (2 Bft) O-NO 67 -3,3 C -4,2 C
12.02.2013 07:16 -1,6 C 88 % 1014,0 hPa 0,0 l/m 6,5 km/h (2 Bft) NO 45 -3,3 C -4,1 C
12.02.2013 07:21 -1,6 C 88 % 1014,2 hPa 0,0 l/m 4,3 km/h (1 Bft) O-NO 67 -3,3 C -1,6 C
12.02.2013 07:26 -1,6 C 88 % 1013,9 hPa 0,0 l/m 6,1 km/h (2 Bft) NO 45 -3,3 C -3,9 C
12.02.2013 07:31 -1,6 C 88 % 1014,1 hPa 0,0 l/m 5,4 km/h (1 Bft) NO 45 -3,3 C -3,6 C
12.02.2013 07:36 -1,6 C 88 % 1014,2 hPa 0,0 l/m 9,0 km/h (2 Bft) O-NO 67 -3,3 C -4,9 C
12.02.2013 07:41 -1,6 C 89 % 1014,1 hPa 0,0 l/m 5,0 km/h (1 Bft) O-NO 67 -3,2 C -3,4 C
12.02.2013 07:46 -1,6 C 89 % 1014,2 hPa 0,0 l/m 6,1 km/h (2 Bft) N 360 -3,2 C -3,9 C
12.02.2013 07:51 -1,6 C 89 % 1014,1 hPa 0,0 l/m 2,9 km/h (1 Bft) NO 45 -3,2 C -1,6 C
12.02.2013 07:56 -1,6 C 89 % 1014,3 hPa 0,0 l/m 3,2 km/h (1 Bft) NO 45 -3,2 C -1,6 C
12.02.2013 08:01 -1,6 C 89 % 1014,2 hPa 0,0 l/m 10,8 km/h (2 Bft) O-NO 67 -3,2 C -5,4 C
12.02.2013 08:06 -1,5 C 89 % 1014,5 hPa 0,0 l/m 4,7 km/h (1 Bft) NO 45 -3,1 C -3,1 C
12.02.2013 08:11 -1,5 C 89 % 1014,4 hPa 0,0 l/m 4,0 km/h (1 Bft) NO 45 -3,1 C -1,5 C
12.02.2013 08:16 -1,4 C 89 % 1014,4 hPa 0,0 l/m 6,1 km/h (2 Bft) NO 45 -3,0 C -3,7 C
12.02.2013 08:21 -1,4 C 88 % 1014,4 hPa 0,0 l/m 3,6 km/h (1 Bft) NO 45 -3,1 C -1,4 C
12.02.2013 08:26 -1,4 C 88 % 1014,5 hPa 0,0 l/m 3,2 km/h (1 Bft) NO 45 -3,1 C -1,4 C
12.02.2013 08:31 -1,4 C 88 % 1014,5 hPa 0,0 l/m 7,2 km/h (2 Bft) NO 45 -3,1 C -4,1 C
12.02.2013 08:36 -1,3 C 88 % 1014,6 hPa 0,0 l/m 4,0 km/h (1 Bft) NO 45 -3,0 C -1,3 C
12.02.2013 08:41 -1,3 C 88 % 1014,6 hPa 0,0 l/m 1,8 km/h (1 Bft) NO 45 -3,0 C -1,3 C
12.02.2013 08:46 -1,2 C 88 % 1014,7 hPa 0,0 l/m 3,2 km/h (1 Bft) O-NO 67 -2,9 C -1,2 C
12.02.2013 08:51 -1,2 C 88 % 1014,8 hPa 0,0 l/m 4,7 km/h (1 Bft) O-NO 67 -2,9 C -2,8 C
12.02.2013 08:56 -1,1 C 88 % 1014,8 hPa 0,0 l/m 2,9 km/h (1 Bft) NO 45 -2,8 C -1,1 C
12.02.2013 09:01 -1,1 C 88 % 1014,8 hPa 0,0 l/m 1,4 km/h (1 Bft) NO 45 -2,8 C -1,1 C
12.02.2013 09:06 -1,1 C 88 % 1014,8 hPa 0,0 l/m 1,1 km/h (1 Bft) NO 45 -2,8 C -1,1 C
12.02.2013 09:11 -1,0 C 87 % 1014,8 hPa 0,0 l/m 0,0 km/h (0 Bft) NO 45 -2,9 C -1,0 C
12.02.2013 09:16 -1,0 C 87 % 1014,9 hPa 0,0 l/m 5,0 km/h (1 Bft) NO 45 -2,9 C -2,7 C
12.02.2013 09:21 -0,9 C 87 % 1014,8 hPa 0,0 l/m 2,5 km/h (1 Bft) NO 45 -2,8 C -0,9 C
12.02.2013 09:26 -0,8 C 86 % 1014,9 hPa 0,0 l/m 2,2 km/h (1 Bft) NO 45 -2,8 C -0,8 C
12.02.2013 09:31 -0,7 C 86 % 1015,0 hPa 0,0 l/m 3,2 km/h (1 Bft) NO 45 -2,7 C -0,7 C
12.02.2013 09:36 -0,7 C 86 % 1015,1 hPa 0,0 l/m 4,7 km/h (1 Bft) O-NO 67 -2,7 C -2,2 C
12.02.2013 09:41 -0,7 C 85 % 1015,1 hPa 0,0 l/m 4,0 km/h (1 Bft) O-NO 67 -2,9 C -0,7 C
12.02.2013 09:46 -0,6 C 85 % 1015,3 hPa 0,0 l/m 3,2 km/h (1 Bft) NO 45 -2,8 C -0,6 C
12.02.2013 09:51 -0,5 C 85 % 1015,0 hPa 0,0 l/m 3,6 km/h (1 Bft) NO 45 -2,7 C -0,5 C
12.02.2013 09:56 -0,4 C 84 % 1015,0 hPa 0,0 l/m 0,0 km/h (0 Bft) NO 45 -2,8 C -0,4 C
12.02.2013 10:01 -0,3 C 84 % 1015,1 hPa 0,0 l/m 3,6 km/h (1 Bft) NO 45 -2,7 C -0,3 C
12.02.2013 10:06 -0,2 C 84 % 1015,2 hPa 0,0 l/m 0,0 km/h (0 Bft) O-NO 67 -2,6 C -0,2 C
12.02.2013 10:11 -0,1 C 83 % 1015,2 hPa 0,0 l/m 5,0 km/h (1 Bft) NO 45 -2,6 C -1,7 C
12.02.2013 10:16 -0,1 C 82 % 1015,0 hPa 0,0 l/m 5,8 km/h (2 Bft) O-NO 67 -2,8 C -2,1 C
12.02.2013 10:21 -0,1 C 82 % 1015,1 hPa 0,0 l/m 2,5 km/h (1 Bft) NO 45 -2,8 C -0,1 C
12.02.2013 10:26 0,1 C 81 % 1015,3 hPa 0,0 l/m 4,3 km/h (1 Bft) NO 45 -2,8 C 0,1 C
12.02.2013 10:31 0,2 C 80 % 1015,1 hPa 0,0 l/m 3,6 km/h (1 Bft) O-NO 67 -2,8 C 0,2 C
12.02.2013 10:36 0,3 C 79 % 1015,1 hPa 0,0 l/m 2,9 km/h (1 Bft) O-NO 67 -2,9 C 0,3 C
12.02.2013 10:41 0,5 C 79 % 1015,2 hPa 0,0 l/m 6,5 km/h (2 Bft) O-NO 67 -2,7 C -1,6 C
12.02.2013 10:46 0,6 C 78 % 1015,1 hPa 0,0 l/m 4,3 km/h (1 Bft) O-NO 67 -2,8 C 0,6 C
12.02.2013 10:51 0,4 C 77 % 1015,2 hPa 0,0 l/m 2,5 km/h (1 Bft) NO 45 -3,1 C 0,4 C
12.02.2013 10:56 0,4 C 77 % 1015,3 hPa 0,0 l/m 6,8 km/h (2 Bft) O-NO 67 -3,1 C -1,9 C
12.02.2013 11:01 0,3 C 77 % 1015,2 hPa 0,0 l/m 9,7 km/h (2 Bft) O-NO 67 -3,2 C -2,9 C
12.02.2013 11:06 0,1 C 77 % 1015,1 hPa 0,0 l/m 5,8 km/h (2 Bft) O-NO 67 -3,4 C -1,8 C
12.02.2013 11:11 0,1 C 77 % 1015,1 hPa 0,0 l/m 3,6 km/h (1 Bft) O-NO 67 -3,4 C 0,1 C
12.02.2013 11:16 0,2 C 77 % 1015,1 hPa 0,0 l/m 7,2 km/h (2 Bft) NO 45 -3,3 C -2,2 C
12.02.2013 11:21 0,2 C 77 % 1015,3 hPa 0,0 l/m 2,5 km/h (1 Bft) NO 45 -3,3 C 0,2 C
12.02.2013 11:26 0,1 C 78 % 1015,3 hPa 0,0 l/m 4,7 km/h (1 Bft) O-NO 67 -3,3 C -1,3 C
12.02.2013 11:31 0,1 C 79 % 1015,4 hPa 0,0 l/m 6,8 km/h (2 Bft) O-NO 67 -3,1 C -2,2 C
12.02.2013 11:36 0,2 C 79 % 1015,3 hPa 0,0 l/m 6,1 km/h (2 Bft) O-NO 67 -3,0 C -1,8 C
12.02.2013 11:41 0,3 C 79 % 1015,2 hPa 0,0 l/m 4,0 km/h (1 Bft) NO 45 -2,9 C 0,3 C
12.02.2013 11:46 0,5 C 79 % 1015,4 hPa 0,0 l/m 2,5 km/h (1 Bft) NO 45 -2,7 C 0,5 C
12.02.2013 11:51 0,6 C 79 % 1015,3 hPa 0,0 l/m 4,0 km/h (1 Bft) O-NO 67 -2,6 C 0,6 C
12.02.2013 11:56 0,6 C 78 % 1015,3 hPa 0,0 l/m 1,8 km/h (1 Bft) NO 45 -2,8 C 0,6 C
12.02.2013 12:01 0,7 C 78 % 1015,5 hPa 0,0 l/m 4,7 km/h (1 Bft) NO 45 -2,7 C -0,7 C
12.02.2013 12:06 0,7 C 77 % 1015,5 hPa 0,0 l/m 6,1 km/h (2 Bft) O 90 -2,9 C -1,3 C
12.02.2013 12:11 0,8 C 76 % 1015,4 hPa 0,0 l/m 6,8 km/h (2 Bft) O-NO 67 -2,9 C -1,4 C
12.02.2013 12:16 0,8 C 75 % 1015,2 hPa 0,0 l/m 9,7 km/h (2 Bft) NO 45 -3,1 C -2,3 C
12.02.2013 12:21 0,8 C 75 % 1015,2 hPa 0,0 l/m 4,3 km/h (1 Bft) O-NO 67 -3,1 C 0,8 C
12.02.2013 12:26 0,9 C 75 % 1015,3 hPa 0,0 l/m 2,9 km/h (1 Bft) NO 45 -3,0 C 0,9 C
12.02.2013 12:31 0,9 C 75 % 1015,2 hPa 0,0 l/m 7,6 km/h (2 Bft) O-NO 67 -3,0 C -1,6 C
12.02.2013 12:36 0,9 C 75 % 1015,2 hPa 0,0 l/m 6,1 km/h (2 Bft) O-NO 67 -3,0 C -1,0 C
12.02.2013 12:41 1,0 C 74 % 1015,2 hPa 0,0 l/m 7,6 km/h (2 Bft) NO 45 -3,1 C -1,4 C
12.02.2013 12:46 1,1 C 73 % 1015,3 hPa 0,0 l/m 7,9 km/h (2 Bft) NO 45 -3,2 C -1,4 C
12.02.2013 12:51 1,2 C 73 % 1015,2 hPa 0,0 l/m 4,0 km/h (1 Bft) NO 45 -3,1 C 1,2 C
12.02.2013 12:56 1,2 C 71 % 1015,2 hPa 0,0 l/m 5,4 km/h (1 Bft) NO 45 -3,5 C -0,4 C
12.02.2013 13:01 1,3 C 71 % 1015,1 hPa 0,0 l/m 4,7 km/h (1 Bft) S-SO 157 -3,4 C 0,0 C
12.02.2013 13:06 1,3 C 71 % 1015,1 hPa 0,0 l/m 5,0 km/h (1 Bft) O-NO 67 -3,4 C -0,1 C
12.02.2013 13:11 1,3 C 71 % 1015,3 hPa 0,0 l/m 7,6 km/h (2 Bft) O-SO 112 -3,4 C -1,1 C
12.02.2013 13:16 1,4 C 70 % 1015,2 hPa 0,0 l/m 3,6 km/h (1 Bft) N 360 -3,5 C 1,4 C
12.02.2013 13:21 1,5 C 69 % 1015,3 hPa 0,0 l/m 6,1 km/h (2 Bft) NO 45 -3,6 C -0,3 C
12.02.2013 13:26 1,6 C 69 % 1015,1 hPa 0,0 l/m 5,4 km/h (1 Bft) O-NO 67 -3,5 C 0,1 C
12.02.2013 13:31 1,6 C 68 % 1015,2 hPa 0,0 l/m 6,8 km/h (2 Bft) NO 45 -3,7 C -0,5 C
12.02.2013 13:36 1,8 C 69 % 1014,9 hPa 0,0 l/m 0,0 km/h (0 Bft) NO 45 -3,3 C 1,8 C
12.02.2013 13:41 1,8 C 67 % 1015,1 hPa 0,0 l/m 9,0 km/h (2 Bft) O-NO 67 -3,7 C -0,9 C
12.02.2013 13:46 1,8 C 66 % 1014,9 hPa 0,0 l/m 8,3 km/h (2 Bft) N-NO 22 -3,9 C -0,7 C
12.02.2013 13:51 1,6 C 66 % 1014,9 hPa 0,0 l/m 3,6 km/h (1 Bft) NO 45 -4,1 C 1,6 C
12.02.2013 13:56 1,6 C 64 % 1014,9 hPa 0,0 l/m 7,6 km/h (2 Bft) O 90 -4,5 C -0,7 C
12.02.2013 14:01 1,8 C 64 % 1014,9 hPa 0,0 l/m 11,2 km/h (2 Bft) O-NO 67 -4,3 C -1,4 C
12.02.2013 14:06 1,8 C 64 % 1014,9 hPa 0,0 l/m 4,3 km/h (1 Bft) O-NO 67 -4,3 C 1,8 C
12.02.2013 14:11 1,7 C 63 % 1014,8 hPa 0,0 l/m 5,4 km/h (1 Bft) NO 45 -4,6 C 0,2 C
12.02.2013 14:16 1,8 C 63 % 1014,8 hPa 0,0 l/m 11,2 km/h (2 Bft) O-NO 67 -4,5 C -1,4 C
12.02.2013 14:21 1,8 C 64 % 1014,9 hPa 0,0 l/m 6,1 km/h (2 Bft) NO 45 -4,3 C 0,0 C
12.02.2013 14:26 1,8 C 63 % 1014,9 hPa 0,0 l/m 5,4 km/h (1 Bft) N-NO 22 -4,5 C 0,3 C
12.02.2013 14:31 1,8 C 63 % 1014,8 hPa 0,0 l/m 13,7 km/h (3 Bft) O-NO 67 -4,5 C -2,0 C
12.02.2013 14:36 1,8 C 65 % 1015,0 hPa 0,0 l/m 8,3 km/h (2 Bft) O-NO 67 -4,1 C -0,7 C
12.02.2013 14:41 1,6 C 66 % 1014,9 hPa 0,0 l/m 9,4 km/h (2 Bft) N-NO 22 -4,1 C -1,3 C
12.02.2013 14:46 1,6 C 67 % 1014,8 hPa 0,0 l/m 6,1 km/h (2 Bft) O-NO 67 -3,9 C -0,2 C
12.02.2013 14:51 1,5 C 66 % 1014,9 hPa 0,0 l/m 7,9 km/h (2 Bft) NO 45 -4,1 C -0,9 C
12.02.2013 14:56 1,6 C 67 % 1014,9 hPa 0,0 l/m 3,2 km/h (1 Bft) N-NO 22 -3,9 C 1,6 C
12.02.2013 15:01 1,5 C 67 % 1014,9 hPa 0,0 l/m 8,3 km/h (2 Bft) O-NO 67 -3,9 C -1,1 C
12.02.2013 15:06 1,5 C 68 % 1014,9 hPa 0,0 l/m 10,4 km/h (2 Bft) N-NO 22 -3,7 C -1,6 C
12.02.2013 15:11 1,5 C 68 % 1014,9 hPa 0,0 l/m 14,4 km/h (3 Bft) N 360 -3,7 C -2,5 C
12.02.2013 15:16 1,4 C 69 % 1015,0 hPa 0,0 l/m 9,4 km/h (2 Bft) O 90 -3,7 C -1,5 C
12.02.2013 15:21 1,3 C 70 % 1015,0 hPa 0,0 l/m 5,4 km/h (1 Bft) NO 45 -3,6 C -0,3 C
12.02.2013 15:26 1,3 C 70 % 1015,0 hPa 0,0 l/m 2,9 km/h (1 Bft) NO 45 -3,6 C 1,3 C
12.02.2013 15:31 1,3 C 70 % 1014,9 hPa 0,0 l/m 5,8 km/h (2 Bft) N-NO 22 -3,6 C -0,5 C
12.02.2013 15:36 1,3 C 69 % 1015,1 hPa 0,0 l/m 11,2 km/h (2 Bft) N-NO 22 -3,7 C -2,0 C
12.02.2013 15:41 1,3 C 69 % 1015,1 hPa 0,0 l/m 2,9 km/h (1 Bft) N-NO 22 -3,7 C 1,3 C
12.02.2013 15:46 1,3 C 69 % 1015,2 hPa 0,0 l/m 6,5 km/h (2 Bft) O-NO 67 -3,7 C -0,7 C
12.02.2013 15:51 1,3 C 69 % 1015,0 hPa 0,0 l/m 8,6 km/h (2 Bft) N-NO 22 -3,7 C -1,4 C
12.02.2013 15:56 1,1 C 70 % 1015,2 hPa 0,0 l/m 5,0 km/h (1 Bft) NO 45 -3,7 C -0,3 C
12.02.2013 16:01 1,0 C 70 % 1015,3 hPa 0,0 l/m 9,7 km/h (2 Bft) N-NO 22 -3,8 C -2,0 C
12.02.2013 16:06 1,0 C 71 % 1015,4 hPa 0,0 l/m 4,7 km/h (1 Bft) O-NO 67 -3,7 C -0,3 C
12.02.2013 16:11 1,0 C 71 % 1015,3 hPa 0,0 l/m 2,9 km/h (1 Bft) N-NO 22 -3,7 C 1,0 C
12.02.2013 16:16 0,9 C 72 % 1015,2 hPa 0,0 l/m 4,3 km/h (1 Bft) N-NO 22 -3,6 C 0,9 C
12.02.2013 16:21 0,9 C 72 % 1015,2 hPa 0,0 l/m 2,2 km/h (1 Bft) NO 45 -3,6 C 0,9 C
12.02.2013 16:26 0,8 C 73 % 1015,4 hPa 0,0 l/m 2,2 km/h (1 Bft) NO 45 -3,5 C 0,8 C
12.02.2013 16:31 0,7 C 73 % 1015,3 hPa 0,0 l/m 2,5 km/h (1 Bft) N-NO 22 -3,6 C 0,7 C
12.02.2013 16:36 0,6 C 73 % 1015,6 hPa 0,0 l/m 1,8 km/h (1 Bft) NO 45 -3,7 C 0,6 C
12.02.2013 16:41 0,5 C 73 % 1015,6 hPa 0,0 l/m 1,8 km/h (1 Bft) N-NO 22 -3,8 C 0,5 C
12.02.2013 16:46 0,4 C 73 % 1015,7 hPa 0,0 l/m 5,4 km/h (1 Bft) N 360 -3,9 C -1,3 C
12.02.2013 16:51 0,3 C 73 % 1015,4 hPa 0,0 l/m 0,0 km/h (0 Bft) N-NO 22 -4,0 C 0,3 C
12.02.2013 16:56 0,1 C 73 % 1015,5 hPa 0,0 l/m 6,1 km/h (2 Bft) N 360 -4,2 C -1,9 C
12.02.2013 17:01 0,0 C 74 % 1015,7 hPa 0,0 l/m 5,0 km/h (1 Bft) N-NO 22 -4,1 C -1,6 C
12.02.2013 17:06 -0,1 C 74 % 1015,7 hPa 0,0 l/m 2,5 km/h (1 Bft) NO 45 -4,2 C -0,1 C
12.02.2013 17:11 -0,3 C 74 % 1015,7 hPa 0,0 l/m 0,0 km/h (0 Bft) N-NO 22 -4,4 C -0,3 C
12.02.2013 17:16 -0,4 C 74 % 1015,7 hPa 0,0 l/m 0,0 km/h (0 Bft) NO 45 -4,5 C -0,4 C
12.02.2013 17:21 -0,6 C 75 % 1016,1 hPa 0,0 l/m 4,0 km/h (1 Bft) N-NO 22 -4,5 C -0,6 C
12.02.2013 17:26 -0,7 C 75 % 1016,1 hPa 0,0 l/m 3,2 km/h (1 Bft) N-NO 22 -4,6 C -0,7 C
12.02.2013 17:31 -0,8 C 75 % 1016,2 hPa 0,0 l/m 0,0 km/h (0 Bft) N-NO 22 -4,7 C -0,8 C
12.02.2013 17:36 -0,9 C 76 % 1016,3 hPa 0,0 l/m 2,2 km/h (1 Bft) NO 45 -4,6 C -0,9 C
12.02.2013 17:41 -1,0 C 76 % 1016,3 hPa 0,0 l/m 1,8 km/h (1 Bft) NO 45 -4,7 C -1,0 C
12.02.2013 17:46 -1,1 C 77 % 1016,1 hPa 0,0 l/m 2,9 km/h (1 Bft) N-NO 22 -4,6 C -1,1 C
12.02.2013 17:51 -1,1 C 77 % 1016,3 hPa 0,0 l/m 0,0 km/h (0 Bft) N-NO 22 -4,6 C -1,1 C
12.02.2013 17:56 -1,1 C 78 % 1016,2 hPa 0,0 l/m 0,0 km/h (0 Bft) NO 45 -4,4 C -1,1 C
12.02.2013 18:01 -1,1 C 78 % 1016,4 hPa 0,0 l/m 4,3 km/h (1 Bft) N-NO 22 -4,4 C -1,1 C
12.02.2013 18:06 -1,1 C 78 % 1016,5 hPa 0,0 l/m 2,5 km/h (1 Bft) N-NO 22 -4,4 C -1,1 C
12.02.2013 18:11 -1,1 C 78 % 1016,5 hPa 0,0 l/m 2,5 km/h (1 Bft) N 360 -4,4 C -1,1 C
12.02.2013 18:16 -1,1 C 78 % 1016,5 hPa 0,0 l/m 6,5 km/h (2 Bft) N 360 -4,4 C -3,5 C
12.02.2013 18:21 -1,1 C 78 % 1016,7 hPa 0,0 l/m 1,8 km/h (1 Bft) N-NO 22 -4,4 C -1,1 C
12.02.2013 18:26 -1,1 C 78 % 1016,6 hPa 0,0 l/m 0,0 km/h (0 Bft) O-NO 67 -4,4 C -1,1 C
12.02.2013 18:31 -1,1 C 78 % 1016,8 hPa 0,0 l/m 1,4 km/h (1 Bft) O-NO 67 -4,4 C -1,1 C
12.02.2013 18:36 -1,1 C 78 % 1016,8 hPa 0,0 l/m 2,5 km/h (1 Bft) NO 45 -4,4 C -1,1 C
12.02.2013 18:41 -1,1 C 78 % 1016,8 hPa 0,0 l/m 4,3 km/h (1 Bft) N-NO 22 -4,4 C -1,1 C
12.02.2013 18:46 -1,1 C 79 % 1016,8 hPa 0,0 l/m 2,9 km/h (1 Bft) N-NO 22 -4,3 C -1,1 C
12.02.2013 18:51 -1,1 C 79 % 1016,8 hPa 0,0 l/m 2,9 km/h (1 Bft) N 360 -4,3 C -1,1 C
12.02.2013 18:56 -1,1 C 79 % 1016,8 hPa 0,0 l/m 2,9 km/h (1 Bft) N-NO 22 -4,3 C -1,1 C
12.02.2013 19:01 -1,1 C 79 % 1016,9 hPa 0,0 l/m 2,5 km/h (1 Bft) N-NO 22 -4,3 C -1,1 C
12.02.2013 19:06 -1,2 C 79 % 1016,9 hPa 0,0 l/m 3,6 km/h (1 Bft) O-NO 67 -4,4 C -1,2 C
12.02.2013 19:11 -1,2 C 79 % 1016,9 hPa 0,0 l/m 3,2 km/h (1 Bft) NO 45 -4,4 C -1,2 C
12.02.2013 19:16 -1,2 C 79 % 1016,8 hPa 0,0 l/m 3,2 km/h (1 Bft) NO 45 -4,4 C -1,2 C
12.02.2013 19:21 -1,1 C 80 % 1016,8 hPa 0,0 l/m 3,2 km/h (1 Bft) N-NO 22 -4,1 C -1,1 C
12.02.2013 19:26 -1,1 C 80 % 1017,0 hPa 0,0 l/m 2,5 km/h (1 Bft) O-NO 67 -4,1 C -1,1 C
12.02.2013 19:31 -1,1 C 80 % 1017,0 hPa 0,0 l/m 2,5 km/h (1 Bft) N-NO 22 -4,1 C -1,1 C
12.02.2013 19:36 -1,1 C 81 % 1016,9 hPa 0,0 l/m 2,5 km/h (1 Bft) N-NO 22 -3,9 C -1,1 C
12.02.2013 19:41 -1,1 C 81 % 1017,0 hPa 0,0 l/m 2,5 km/h (1 Bft) N-NO 22 -3,9 C -1,1 C
12.02.2013 19:46 -1,1 C 81 % 1017,1 hPa 0,0 l/m 2,2 km/h (1 Bft) O-NO 67 -3,9 C -1,1 C
12.02.2013 19:51 -1,1 C 81 % 1017,1 hPa 0,0 l/m 2,5 km/h (1 Bft) NO 45 -3,9 C -1,1 C
12.02.2013 19:56 -1,1 C 81 % 1017,1 hPa 0,0 l/m 2,5 km/h (1 Bft) NO 45 -3,9 C -1,1 C
12.02.2013 20:01 -1,1 C 81 % 1017,1 hPa 0,0 l/m 3,2 km/h (1 Bft) N-NO 22 -3,9 C -1,1 C
12.02.2013 20:06 -1,1 C 81 % 1017,1 hPa 0,0 l/m 3,6 km/h (1 Bft) N-NO 22 -3,9 C -1,1 C
12.02.2013 20:11 -1,1 C 81 % 1017,2 hPa 0,0 l/m 2,9 km/h (1 Bft) NO 45 -3,9 C -1,1 C
12.02.2013 20:16 -1,1 C 81 % 1017,2 hPa 0,0 l/m 3,2 km/h (1 Bft) O-NO 67 -3,9 C -1,1 C
12.02.2013 20:21 -1,2 C 81 % 1017,4 hPa 0,0 l/m 2,9 km/h (1 Bft) N-NO 22 -4,0 C -1,2 C
12.02.2013 20:26 -1,2 C 81 % 1017,3 hPa 0,0 l/m 5,8 km/h (2 Bft) NO 45 -4,0 C -3,3 C
12.02.2013 20:31 -1,2 C 81 % 1017,3 hPa 0,0 l/m 2,2 km/h (1 Bft) NO 45 -4,0 C -1,2 C
12.02.2013 20:36 -1,4 C 81 % 1017,4 hPa 0,0 l/m 2,5 km/h (1 Bft) NO 45 -4,2 C -1,4 C
12.02.2013 20:41 -1,5 C 82 % 1017,4 hPa 0,0 l/m 1,8 km/h (1 Bft) NO 45 -4,2 C -1,5 C
12.02.2013 20:46 -1,5 C 82 % 1017,4 hPa 0,0 l/m 0,0 km/h (0 Bft) NO 45 -4,2 C -1,5 C
12.02.2013 20:51 -1,6 C 82 % 1017,4 hPa 0,0 l/m 2,2 km/h (1 Bft) NO 45 -4,3 C -1,6 C
12.02.2013 20:56 -1,6 C 82 % 1017,4 hPa 0,0 l/m 4,7 km/h (1 Bft) O-NO 67 -4,3 C -3,3 C
12.02.2013 21:01 -1,6 C 82 % 1017,4 hPa 0,0 l/m 2,5 km/h (1 Bft) O-NO 67 -4,3 C -1,6 C
12.02.2013 21:06 -1,6 C 83 % 1017,5 hPa 0,0 l/m 2,2 km/h (1 Bft) NO 45 -4,1 C -1,6 C
12.02.2013 21:11 -1,7 C 83 % 1017,6 hPa 0,0 l/m 4,0 km/h (1 Bft) O-NO 67 -4,2 C -1,7 C
12.02.2013 21:16 -1,7 C 83 % 1017,7 hPa 0,0 l/m 2,2 km/h (1 Bft) NO 45 -4,2 C -1,7 C
12.02.2013 21:21 -1,7 C 83 % 1017,7 hPa 0,0 l/m 3,6 km/h (1 Bft) O-NO 67 -4,2 C -1,7 C
12.02.2013 21:26 -1,7 C 83 % 1017,8 hPa 0,0 l/m 0,0 km/h (0 Bft) NO 45 -4,2 C -1,7 C
12.02.2013 21:31 -1,8 C 83 % 1017,8 hPa 0,0 l/m 2,9 km/h (1 Bft) NO 45 -4,3 C -1,8 C
12.02.2013 21:36 -1,8 C 83 % 1017,9 hPa 0,0 l/m 2,5 km/h (1 Bft) NO 45 -4,3 C -1,8 C
12.02.2013 21:41 -1,8 C 83 % 1017,9 hPa 0,0 l/m 4,7 km/h (1 Bft) NO 45 -4,3 C -3,5 C
12.02.2013 21:46 -1,8 C 83 % 1017,9 hPa 0,0 l/m 4,0 km/h (1 Bft) NO 45 -4,3 C -1,8 C
12.02.2013 21:51 -1,8 C 83 % 1018,0 hPa 0,0 l/m 3,6 km/h (1 Bft) NO 45 -4,3 C -1,8 C
12.02.2013 21:56 -1,8 C 84 % 1018,0 hPa 0,0 l/m 3,6 km/h (1 Bft) NO 45 -4,1 C -1,8 C
12.02.2013 22:01 -1,8 C 84 % 1018,1 hPa 0,0 l/m 4,7 km/h (1 Bft) NO 45 -4,1 C -3,5 C
12.02.2013 22:06 -1,8 C 84 % 1017,8 hPa 0,0 l/m 2,5 km/h (1 Bft) N-NO 22 -4,1 C -1,8 C
12.02.2013 22:11 -1,9 C 84 % 1017,9 hPa 0,0 l/m 0,0 km/h (0 Bft) NO 45 -4,2 C -1,9 C
12.02.2013 22:16 -1,9 C 84 % 1018,0 hPa 0,0 l/m 0,0 km/h (0 Bft) NO 45 -4,2 C -1,9 C
12.02.2013 22:21 -1,9 C 84 % 1018,1 hPa 0,0 l/m 2,2 km/h (1 Bft) O-NO 67 -4,2 C -1,9 C
12.02.2013 22:26 -1,8 C 84 % 1018,0 hPa 0,0 l/m 5,0 km/h (1 Bft) O-NO 67 -4,1 C -3,6 C
12.02.2013 22:31 -1,9 C 84 % 1018,2 hPa 0,0 l/m 1,1 km/h (1 Bft) NO 45 -4,2 C -1,9 C
12.02.2013 22:36 -1,9 C 84 % 1018,1 hPa 0,0 l/m 4,0 km/h (1 Bft) O-NO 67 -4,2 C -1,9 C
12.02.2013 22:41 -1,9 C 84 % 1018,0 hPa 0,0 l/m 1,8 km/h (1 Bft) N-NO 22 -4,2 C -1,9 C
12.02.2013 22:46 -1,9 C 84 % 1018,2 hPa 0,0 l/m 1,8 km/h (1 Bft) O-NO 67 -4,2 C -1,9 C
12.02.2013 22:51 -2,1 C 84 % 1018,2 hPa 0,0 l/m 0,0 km/h (0 Bft) N-NO 22 -4,4 C -2,1 C
12.02.2013 22:56 -2,1 C 85 % 1018,2 hPa 0,0 l/m 0,0 km/h (0 Bft) NO 45 -4,3 C -2,1 C
12.02.2013 23:01 -2,1 C 85 % 1018,2 hPa 0,0 l/m 4,3 km/h (1 Bft) NO 45 -4,3 C -2,1 C
12.02.2013 23:06 -2,2 C 85 % 1018,3 hPa 0,0 l/m 0,0 km/h (0 Bft) NO 45 -4,4 C -2,2 C
12.02.2013 23:11 -2,2 C 85 % 1018,3 hPa 0,0 l/m 3,6 km/h (1 Bft) O-NO 67 -4,4 C -2,2 C
12.02.2013 23:16 -2,2 C 85 % 1018,4 hPa 0,0 l/m 3,6 km/h (1 Bft) O-NO 67 -4,4 C -2,2 C
12.02.2013 23:21 -2,2 C 85 % 1018,5 hPa 0,0 l/m 4,0 km/h (1 Bft) N-NO 22 -4,4 C -2,2 C
12.02.2013 23:26 -2,4 C 85 % 1018,5 hPa 0,0 l/m 2,9 km/h (1 Bft) NO 45 -4,6 C -2,4 C
12.02.2013 23:31 -2,4 C 85 % 1018,6 hPa 0,0 l/m 2,5 km/h (1 Bft) NO 45 -4,6 C -2,4 C
12.02.2013 23:36 -2,4 C 85 % 1018,5 hPa 0,0 l/m 2,5 km/h (1 Bft) O-NO 67 -4,6 C -2,4 C
12.02.2013 23:41 -2,5 C 85 % 1018,6 hPa 0,0 l/m 0,0 km/h (0 Bft) NO 45 -4,7 C -2,5 C
12.02.2013 23:46 -2,6 C 85 % 1018,6 hPa 0,0 l/m 5,8 km/h (2 Bft) O-NO 67 -4,8 C -4,9 C
12.02.2013 23:51 -2,6 C 85 % 1018,7 hPa 0,0 l/m 3,2 km/h (1 Bft) O-NO 67 -4,8 C -2,6 C
12.02.2013 23:56 -2,6 C 86 % 1018,6 hPa 0,0 l/m 2,9 km/h (1 Bft) NO 45 -4,6 C -2,6 C
_ Min-Zeit 23:46 14:11 00:01 - 04:41 - - 23:46 05:31
Minimum _ -2,6 C 63 % 1013,5 hPa - 0,0 km/h (0 Bft) - - -4,8 C -5,5 C
_ Max-Zeit 13:36 07:41 23:51 00:01 15:11 - - 10:06 13:36
Maximum _ 1,8 C 89 % 1018,7 hPa 0,0 l/m 14,4 km/h
N (3 Bft)
- - -2,6 C 1,8 C
Durchschnitt _ -0,8 C 81 % 1015,3 hPa #0,0 l/m 4,4 km/h (1 Bft) NO - -3,7 C -1,8 C
(c) by David Heller